TimePDT,TemperatureF,Dew PointF,Humidity,Sea Level PressureIn,VisibilityMPH,Wind Direction,Wind SpeedMPH,Gust SpeedMPH,PrecipitationIn,Events,Conditions,WindDirDegrees,DateUTC
12:53 AM,44.1,42.1,93,29.90,10.0,North,4.6,-,N/A,,Mostly Cloudy,350,2013-09-26 07:53:00
1:53 AM,44.1,41.0,89,29.90,10.0,NNW,3.5,-,N/A,,Mostly Cloudy,330,2013-09-26 08:53:00
2:53 AM,44.1,39.9,85,29.92,10.0,Calm,Calm,-,N/A,,Mostly Cloudy,0,2013-09-26 09:53:00
3:53 AM,43.0,39.9,89,29.92,10.0,Calm,Calm,-,N/A,,Mostly Cloudy,0,2013-09-26 10:53:00
4:53 AM,42.1,39.0,89,29.94,10.0,Calm,Calm,-,N/A,,Mostly Cloudy,0,2013-09-26 11:53:00
5:53 AM,43.0,39.0,86,29.95,10.0,Calm,Calm,-,N/A,,Mostly Cloudy,0,2013-09-26 12:53:00
6:53 AM,42.1,39.0,89,29.97,10.0,Calm,Calm,-,N/A,,Scattered Clouds,0,2013-09-26 13:53:00
7:53 AM,44.1,37.9,79,29.99,10.0,NNE,4.6,-,N/A,,Scattered Clouds,30,2013-09-26 14:53:00
8:53 AM,46.9,39.9,77,30.00,10.0,Calm,Calm,-,N/A,,Mostly Cloudy,0,2013-09-26 15:53:00
9:53 AM,51.1,39.0,63,30.01,10.0,NNE,8.1,-,N/A,,Mostly Cloudy,20,2013-09-26 16:53:00
10:53 AM,54.0,39.0,57,30.01,10.0,NE,8.1,-,N/A,,Mostly Cloudy,40,2013-09-26 17:53:00
11:53 AM,57.9,33.1,39,30.00,10.0,NE,9.2,16.1,N/A,,Scattered Clouds,40,2013-09-26 18:53:00
12:53 PM,59.0,32.0,36,29.99,10.0,NE,10.4,-,N/A,,Scattered Clouds,40,2013-09-26 19:53:00
1:53 PM,61.0,30.9,32,29.98,10.0,North,10.4,-,N/A,,Scattered Clouds,360,2013-09-26 20:53:00
2:53 PM,60.1,28.0,30,29.99,10.0,North,9.2,-,N/A,,Mostly Cloudy,10,2013-09-26 21:53:00
3:53 PM,61.0,28.9,30,29.99,10.0,NE,9.2,-,N/A,,Mostly Cloudy,40,2013-09-26 22:53:00
4:53 PM,59.0,27.0,29,30.00,10.0,ENE,9.2,-,N/A,,Mostly Cloudy,60,2013-09-26 23:53:00
5:53 PM,59.0,28.0,31,30.01,10.0,ENE,4.6,-,N/A,,Mostly Cloudy,60,2013-09-27 00:53:00
6:53 PM,57.9,28.9,33,30.02,10.0,Calm,Calm,-,N/A,,Mostly Cloudy,0,2013-09-27 01:53:00
7:53 PM,55.9,30.9,39,30.03,10.0,SE,3.5,-,N/A,,Mostly Cloudy,130,2013-09-27 02:53:00
8:53 PM,53.1,32.0,45,30.04,10.0,SSW,3.5,-,N/A,,Mostly Cloudy,200,2013-09-27 03:53:00
9:53 PM,46.9,34.0,61,30.04,10.0,West,5.8,-,N/A,,Mostly Cloudy,260,2013-09-27 04:53:00
10:53 PM,50.0,35.1,57,30.03,10.0,WSW,6.9,-,N/A,,Mostly Cloudy,240,2013-09-27 05:53:00
11:53 PM,50.0,35.1,57,30.02,10.0,Calm,Calm,-,N/A,,Overcast,0,2013-09-27 06:53:00